Time;durP1;ratioP1;P1;durP2;ratioP2;P2;SDS_P1;SDS_P2;PMS_P1;PMS_P2;Temp;Humidity;BMP_temperature;BMP_pressure;BME280_temperature;BME280_humidity;BME280_pressure;Samples;Min_cycle;Max_cycle;Signal;HPM_P1;HPM_P2
2023/12/16 00:01:46;;;;;;;16.00;7.57;;;;;;;;;;4973037;28;20207;-47
2023/12/16 00:04:13;;;;;;;14.20;7.37;;;;;;;;;;4972697;28;20210;-48
2023/12/16 00:06:39;;;;;;;14.13;7.00;;;;;;;;;;4972882;28;20657;-47
2023/12/16 00:09:05;;;;;;;19.63;7.13;;;;;;;;;;4972707;28;20253;-47
2023/12/16 00:11:31;;;;;;;13.83;6.97;;;;;;;;;;4972488;28;20206;-47
2023/12/16 00:13:57;;;;;;;15.53;7.70;;;;;;;;;;4972795;28;20206;-47
2023/12/16 00:16:24;;;;;;;13.00;7.00;;;;;;;;;;4972822;28;20191;-48
2023/12/16 00:18:50;;;;;;;11.97;6.93;;;;;;;;;;4972706;28;20661;-47
2023/12/16 00:21:17;;;;;;;12.03;6.57;;;;;;;;;;4972775;28;20210;-47
2023/12/16 00:23:43;;;;;;;13.33;7.00;;;;;;;;;;4972704;28;20223;-47
2023/12/16 00:26:09;;;;;;;13.40;6.97;;;;;;;;;;4974516;28;20253;-47
2023/12/16 00:28:35;;;;;;;15.97;7.53;;;;;;;;;;4976862;28;20366;-47
2023/12/16 00:31:01;;;;;;;14.67;6.60;;;;;;;;;;4976616;28;20198;-47
2023/12/16 00:33:27;;;;;;;11.47;6.57;;;;;;;;;;4976752;28;20205;-47
2023/12/16 00:35:53;;;;;;;11.03;7.27;;;;;;;;;;4976398;28;20215;-48
2023/12/16 00:38:21;;;;;;;17.10;7.30;;;;;;;;;;4976232;28;20248;-48
2023/12/16 00:40:47;;;;;;;13.93;7.07;;;;;;;;;;4976486;28;20597;-48
2023/12/16 00:43:13;;;;;;;12.03;6.63;;;;;;;;;;4976471;28;20194;-47
2023/12/16 00:45:39;;;;;;;14.17;6.30;;;;;;;;;;4976564;28;20253;-47
2023/12/16 00:48:05;;;;;;;12.27;6.67;;;;;;;;;;4975908;28;20203;-47
2023/12/16 00:50:31;;;;;;;15.37;6.77;;;;;;;;;;4976504;28;20198;-48
2023/12/16 00:52:57;;;;;;;17.33;7.70;;;;;;;;;;4976283;28;20565;-48
2023/12/16 00:55:24;;;;;;;15.10;6.10;;;;;;;;;;4972941;28;20191;-48
2023/12/16 00:57:50;;;;;;;13.03;7.33;;;;;;;;;;4976170;28;20215;-48
2023/12/16 01:00:17;;;;;;;15.50;6.77;;;;;;;;;;4976167;28;20209;-48
2023/12/16 01:02:42;;;;;;;15.80;6.93;;;;;;;;;;4976383;28;20253;-48
2023/12/16 01:05:09;;;;;;;14.67;6.57;;;;;;;;;;4976200;28;20199;-49
2023/12/16 01:07:35;;;;;;;12.37;6.63;;;;;;;;;;4976092;28;20227;-49
2023/12/16 01:10:01;;;;;;;12.07;6.00;;;;;;;;;;4976081;28;20206;-48
2023/12/16 01:12:28;;;;;;;13.67;6.60;;;;;;;;;;4975997;28;20206;-49
2023/12/16 01:14:54;;;;;;;12.63;6.27;;;;;;;;;;4976310;28;20234;-48
2023/12/16 01:17:20;;;;;;;16.13;6.20;;;;;;;;;;4975834;28;20358;-49
2023/12/16 01:19:46;;;;;;;11.67;6.60;;;;;;;;;;4975951;28;20206;-49
2023/12/16 01:22:13;;;;;;;15.07;6.67;;;;;;;;;;4975793;28;20756;-48
2023/12/16 01:24:39;;;;;;;10.73;6.03;;;;;;;;;;4975964;28;20199;-48
2023/12/16 01:27:05;;;;;;;11.43;6.23;;;;;;;;;;4975448;28;20254;-48
2023/12/16 01:29:32;;;;;;;16.20;6.70;;;;;;;;;;4975765;28;20250;-49
2023/12/16 01:31:58;;;;;;;14.77;6.40;;;;;;;;;;4975736;28;20211;-48
2023/12/16 01:34:24;;;;;;;12.33;5.87;;;;;;;;;;4975765;28;20293;-47
2023/12/16 01:36:50;;;;;;;12.97;6.03;;;;;;;;;;4974533;28;20199;-48
2023/12/16 01:39:16;;;;;;;13.63;5.90;;;;;;;;;;4975399;28;20234;-48
2023/12/16 01:41:42;;;;;;;15.40;5.90;;;;;;;;;;4975519;28;20542;-48
2023/12/16 01:44:08;;;;;;;10.53;5.83;;;;;;;;;;4975586;28;20199;-48
2023/12/16 01:46:36;;;;;;;12.10;5.53;;;;;;;;;;4975496;28;20664;-48
2023/12/16 01:49:02;;;;;;;13.60;5.73;;;;;;;;;;4975286;28;20674;-48
2023/12/16 01:51:28;;;;;;;12.00;5.03;;;;;;;;;;4975338;28;20666;-48
2023/12/16 01:53:54;;;;;;;9.83;5.20;;;;;;;;;;4975438;28;20683;-48
2023/12/16 01:56:21;;;;;;;12.83;5.00;;;;;;;;;;4973432;28;20199;-48
2023/12/16 01:58:49;;;;;;;11.90;4.67;;;;;;;;;;4975215;28;20203;-48
2023/12/16 02:01:15;;;;;;;10.63;5.17;;;;;;;;;;4975076;28;20199;-48
2023/12/16 02:03:45;;;;;;;9.93;5.40;;;;;;;;;;4975125;28;20724;-48
2023/12/16 02:06:11;;;;;;;14.00;4.67;;;;;;;;;;4973483;28;20674;-48
2023/12/16 02:08:37;;;;;;;9.67;4.47;;;;;;;;;;4971825;28;20207;-47
2023/12/16 02:11:04;;;;;;;9.47;4.30;;;;;;;;;;4971541;28;20580;-48
2023/12/16 02:13:30;;;;;;;10.67;4.20;;;;;;;;;;4973360;28;20211;-48
2023/12/16 02:15:56;;;;;;;9.80;5.20;;;;;;;;;;4971851;28;20294;-48
2023/12/16 02:18:22;;;;;;;8.70;4.40;;;;;;;;;;4973318;28;20669;-48
2023/12/16 02:20:49;;;;;;;7.67;4.00;;;;;;;;;;4968108;28;20233;-48
2023/12/16 02:23:17;;;;;;;11.87;4.13;;;;;;;;;;4974716;28;20231;-48
2023/12/16 02:25:43;;;;;;;11.50;4.33;;;;;;;;;;4968070;28;20203;-48
2023/12/16 02:28:09;;;;;;;13.40;4.60;;;;;;;;;;4966085;28;20234;-46
2023/12/16 02:30:35;;;;;;;7.60;3.70;;;;;;;;;;4967977;28;20198;-47
2023/12/16 02:33:01;;;;;;;9.87;4.03;;;;;;;;;;4967882;28;20777;-47
2023/12/16 02:35:27;;;;;;;10.77;3.97;;;;;;;;;;4967805;28;20203;-47
2023/12/16 02:37:53;;;;;;;9.53;3.90;;;;;;;;;;4966213;28;20273;-47
2023/12/16 02:40:20;;;;;;;11.37;4.27;;;;;;;;;;4967581;28;20199;-47
2023/12/16 02:42:46;;;;;;;8.47;4.20;;;;;;;;;;4983487;28;20214;-47
2023/12/16 02:45:12;;;;;;;7.53;3.80;;;;;;;;;;4992045;28;20205;-48
2023/12/16 02:47:38;;;;;;;8.47;3.80;;;;;;;;;;4986799;28;20708;-47
2023/12/16 02:50:07;;;;;;;10.80;3.97;;;;;;;;;;4986719;28;20210;-47
2023/12/16 02:52:33;;;;;;;11.07;3.80;;;;;;;;;;4986967;28;20245;-47
2023/12/16 02:54:59;;;;;;;12.93;4.13;;;;;;;;;;4985081;28;20572;-47
2023/12/16 02:57:26;;;;;;;11.50;4.47;;;;;;;;;;4986841;28;20274;-47
2023/12/16 02:59:52;;;;;;;8.60;3.87;;;;;;;;;;4986767;28;20206;-47
2023/12/16 03:02:18;;;;;;;7.80;3.77;;;;;;;;;;4985048;28;20216;-47
2023/12/16 03:04:44;;;;;;;8.23;3.13;;;;;;;;;;4985054;28;20202;-47
2023/12/16 03:07:10;;;;;;;10.63;4.27;;;;;;;;;;4983171;28;20232;-47
2023/12/16 03:09:36;;;;;;;6.03;3.20;;;;;;;;;;4987167;28;21246;-47
2023/12/16 03:12:04;;;;;;;11.67;4.40;;;;;;;;;;4986369;28;20198;-47
2023/12/16 03:14:32;;;;;;;7.47;3.53;;;;;;;;;;4986408;28;20221;-47
2023/12/16 03:16:58;;;;;;;10.13;3.47;;;;;;;;;;4981560;28;20199;-47
2023/12/16 03:19:24;;;;;;;8.93;3.50;;;;;;;;;;4983294;28;20195;-48
2023/12/16 03:21:50;;;;;;;8.70;3.73;;;;;;;;;;4986335;28;20252;-47
2023/12/16 03:24:16;;;;;;;7.33;3.47;;;;;;;;;;4982859;28;20202;-47
2023/12/16 03:26:43;;;;;;;8.93;4.10;;;;;;;;;;4982956;28;20663;-47
2023/12/16 03:29:08;;;;;;;7.37;3.63;;;;;;;;;;4984309;28;20736;-47
2023/12/16 03:31:36;;;;;;;6.30;3.10;;;;;;;;;;4984510;28;20198;-46
2023/12/16 03:34:02;;;;;;;11.10;3.40;;;;;;;;;;4982802;28;20218;-47
2023/12/16 03:36:28;;;;;;;9.33;3.10;;;;;;;;;;4986042;28;20190;-47
2023/12/16 03:38:54;;;;;;;7.97;3.27;;;;;;;;;;4982756;28;20202;-47
2023/12/16 03:41:20;;;;;;;5.07;2.80;;;;;;;;;;4984212;28;20257;-47
2023/12/16 03:43:46;;;;;;;9.43;3.33;;;;;;;;;;4982602;28;20639;-47
2023/12/16 03:46:12;;;;;;;7.50;3.17;;;;;;;;;;4980840;28;20313;-48
2023/12/16 03:48:39;;;;;;;6.63;2.70;;;;;;;;;;4981097;28;20616;-47
2023/12/16 03:51:05;;;;;;;8.83;3.00;;;;;;;;;;4985979;28;20198;-47
2023/12/16 03:53:31;;;;;;;4.93;2.77;;;;;;;;;;4982482;28;20213;-47
2023/12/16 03:55:57;;;;;;;7.77;3.30;;;;;;;;;;4982623;28;20198;-47
2023/12/16 03:58:24;;;;;;;6.57;2.80;;;;;;;;;;4979036;28;20217;-47
2023/12/16 04:00:50;;;;;;;9.73;3.17;;;;;;;;;;4983456;28;20226;-47
2023/12/16 04:03:16;;;;;;;10.97;2.70;;;;;;;;;;4982276;28;20233;-47
2023/12/16 04:05:44;;;;;;;9.20;2.80;;;;;;;;;;4982442;28;20265;-48
2023/12/16 04:08:10;;;;;;;8.60;2.87;;;;;;;;;;4982450;28;20202;-48
2023/12/16 04:10:36;;;;;;;9.97;3.17;;;;;;;;;;4982283;28;20221;-47
2023/12/16 04:13:02;;;;;;;7.73;3.00;;;;;;;;;;4992395;28;20821;-47
2023/12/16 04:15:28;;;;;;;14.60;3.20;;;;;;;;;;4992308;28;20571;-48
2023/12/16 04:17:54;;;;;;;9.00;3.13;;;;;;;;;;4992412;28;20665;-48
2023/12/16 04:20:20;;;;;;;9.33;3.07;;;;;;;;;;4992266;28;20289;-47
2023/12/16 04:22:47;;;;;;;9.07;3.40;;;;;;;;;;4992198;28;20226;-47
2023/12/16 04:25:13;;;;;;;12.77;3.47;;;;;;;;;;4992182;28;20202;-47
2023/12/16 04:27:39;;;;;;;8.83;2.77;;;;;;;;;;4992234;28;20269;-48
2023/12/16 04:30:06;;;;;;;10.17;3.10;;;;;;;;;;4992239;28;20198;-47
2023/12/16 04:32:32;;;;;;;7.67;3.20;;;;;;;;;;4992088;28;20693;-47
2023/12/16 04:34:58;;;;;;;8.87;3.10;;;;;;;;;;4992354;28;20661;-47
2023/12/16 04:37:24;;;;;;;6.97;2.67;;;;;;;;;;4992146;28;20225;-47
2023/12/16 04:39:52;;;;;;;9.47;2.93;;;;;;;;;;4992047;28;20665;-47
2023/12/16 04:42:18;;;;;;;8.60;3.23;;;;;;;;;;4991933;28;20206;-47
2023/12/16 04:44:44;;;;;;;9.00;2.77;;;;;;;;;;4992152;28;20260;-47
2023/12/16 04:47:10;;;;;;;8.17;3.00;;;;;;;;;;4992038;28;20226;-47
2023/12/16 04:49:36;;;;;;;10.00;3.50;;;;;;;;;;4992126;28;20206;-47
2023/12/16 04:52:02;;;;;;;13.37;3.60;;;;;;;;;;4991974;28;20213;-47
2023/12/16 04:54:28;;;;;;;11.87;3.40;;;;;;;;;;4991917;28;20210;-47
2023/12/16 04:56:55;;;;;;;6.93;2.73;;;;;;;;;;4991981;28;20202;-47
2023/12/16 04:59:21;;;;;;;6.73;2.90;;;;;;;;;;4991804;28;20203;-47
2023/12/16 05:01:47;;;;;;;8.77;3.03;;;;;;;;;;4991838;28;20202;-48
2023/12/16 05:04:13;;;;;;;8.80;2.80;;;;;;;;;;4991814;28;20202;-48
2023/12/16 05:06:39;;;;;;;6.77;2.93;;;;;;;;;;4991938;28;20226;-47
2023/12/16 05:09:12;;;;;;;4.53;2.47;;;;;;;;;;4991818;28;20253;-48
2023/12/16 05:11:38;;;;;;;8.97;2.70;;;;;;;;;;4993035;28;20194;-48
2023/12/16 05:14:05;;;;;;;9.00;2.87;;;;;;;;;;4995443;28;20212;-47
2023/12/16 05:16:31;;;;;;;10.17;3.63;;;;;;;;;;4995382;28;20568;-48
2023/12/16 05:18:59;;;;;;;8.57;3.00;;;;;;;;;;4995555;28;20205;-47
2023/12/16 05:21:25;;;;;;;9.53;2.80;;;;;;;;;;4993650;28;20230;-47
2023/12/16 05:23:51;;;;;;;10.27;3.23;;;;;;;;;;4985307;28;20272;-47
2023/12/16 05:26:20;;;;;;;6.17;2.67;;;;;;;;;;4983162;28;20689;-47
2023/12/16 05:28:46;;;;;;;8.80;2.90;;;;;;;;;;4984971;28;20293;-47
2023/12/16 05:31:13;;;;;;;7.90;3.00;;;;;;;;;;4983248;28;20210;-47
2023/12/16 05:33:39;;;;;;;9.57;3.40;;;;;;;;;;4983582;28;20202;-47
2023/12/16 05:36:07;;;;;;;6.30;2.50;;;;;;;;;;4983154;28;20665;-47
2023/12/16 05:38:33;;;;;;;11.97;4.17;;;;;;;;;;4985026;28;20701;-47
2023/12/16 05:40:59;;;;;;;8.17;3.80;;;;;;;;;;4985280;28;20241;-47
2023/12/16 05:43:25;;;;;;;7.43;4.07;;;;;;;;;;4983060;28;20253;-47
2023/12/16 05:45:51;;;;;;;8.30;3.60;;;;;;;;;;4982883;28;20194;-47
2023/12/16 05:48:18;;;;;;;10.33;3.30;;;;;;;;;;4982915;28;20617;-47
2023/12/16 05:50:44;;;;;;;9.73;3.50;;;;;;;;;;4982966;28;20206;-47
2023/12/16 05:53:10;;;;;;;11.27;4.00;;;;;;;;;;4982962;28;20285;-47
2023/12/16 05:55:36;;;;;;;11.63;3.70;;;;;;;;;;4982710;28;20560;-47
2023/12/16 05:58:02;;;;;;;9.07;3.80;;;;;;;;;;4982806;28;20198;-47
2023/12/16 06:00:28;;;;;;;8.63;4.17;;;;;;;;;;4982726;28;20209;-47
2023/12/16 06:02:54;;;;;;;7.70;3.60;;;;;;;;;;4982888;28;20202;-47
2023/12/16 06:05:22;;;;;;;9.73;3.47;;;;;;;;;;4982494;28;20205;-48
2023/12/16 06:07:48;;;;;;;9.63;3.60;;;;;;;;;;4982604;28;20245;-47
2023/12/16 06:10:14;;;;;;;8.90;4.10;;;;;;;;;;4982480;28;20194;-47
2023/12/16 06:12:40;;;;;;;10.80;3.83;;;;;;;;;;4982769;28;20289;-47
2023/12/16 06:15:07;;;;;;;10.20;4.13;;;;;;;;;;4982544;28;20696;-47
2023/12/16 06:17:33;;;;;;;10.17;3.77;;;;;;;;;;4984079;28;20202;-47
2023/12/16 06:19:59;;;;;;;7.97;3.40;;;;;;;;;;4982519;28;20257;-47
2023/12/16 06:22:26;;;;;;;13.63;3.80;;;;;;;;;;4982182;28;20701;-47
2023/12/16 06:24:52;;;;;;;11.13;4.10;;;;;;;;;;4981729;28;20657;-47
2023/12/16 06:27:18;;;;;;;8.60;4.00;;;;;;;;;;4983739;28;20236;-47
2023/12/16 06:29:44;;;;;;;9.60;3.80;;;;;;;;;;4980803;28;20198;-47
2023/12/16 06:32:10;;;;;;;11.93;3.83;;;;;;;;;;4985067;28;20539;-47
2023/12/16 06:34:36;;;;;;;9.03;3.93;;;;;;;;;;4980694;28;20663;-47
2023/12/16 06:37:02;;;;;;;12.20;3.87;;;;;;;;;;4985416;28;20194;-47
2023/12/16 06:39:29;;;;;;;9.20;3.43;;;;;;;;;;4980418;28;20202;-47
2023/12/16 06:41:55;;;;;;;10.47;3.87;;;;;;;;;;4982457;28;20207;-48
2023/12/16 06:44:22;;;;;;;14.87;4.97;;;;;;;;;;4983490;28;20639;-47
2023/12/16 06:46:48;;;;;;;12.03;3.50;;;;;;;;;;4981898;28;20238;-47
2023/12/16 06:49:14;;;;;;;12.90;3.47;;;;;;;;;;4981763;28;20536;-47
2023/12/16 06:51:39;;;;;;;6.13;3.20;;;;;;;;;;4980230;28;20202;-47
2023/12/16 06:54:06;;;;;;;6.90;3.70;;;;;;;;;;4983641;28;20202;-47
2023/12/16 06:56:33;;;;;;;11.47;3.97;;;;;;;;;;4983315;28;20237;-47
2023/12/16 06:58:59;;;;;;;9.83;3.80;;;;;;;;;;4981733;28;20249;-47
2023/12/16 07:01:25;;;;;;;11.50;3.97;;;;;;;;;;4989709;28;20658;-48
2023/12/16 07:03:51;;;;;;;8.97;3.40;;;;;;;;;;4993435;28;20198;-48
2023/12/16 07:06:19;;;;;;;10.50;3.27;;;;;;;;;;4993184;28;20201;-48
2023/12/16 07:08:45;;;;;;;10.03;4.07;;;;;;;;;;4993299;28;20206;-48
2023/12/16 07:11:12;;;;;;;8.07;4.00;;;;;;;;;;4993249;28;20198;-47
2023/12/16 07:13:39;;;;;;;18.70;7.53;;;;;;;;;;4993382;28;20209;-48
2023/12/16 07:16:06;;;;;;;19.80;6.87;;;;;;;;;;4993368;28;20293;-47
2023/12/16 07:18:32;;;;;;;11.17;4.37;;;;;;;;;;4993083;28;20289;-48
2023/12/16 07:20:58;;;;;;;12.73;4.57;;;;;;;;;;4993382;28;20601;-47
2023/12/16 07:23:24;;;;;;;12.87;3.70;;;;;;;;;;4993136;28;20233;-48
2023/12/16 07:25:50;;;;;;;11.83;4.57;;;;;;;;;;4992962;28;20253;-46
2023/12/16 07:28:16;;;;;;;10.70;4.40;;;;;;;;;;4992554;28;20238;-47
2023/12/16 07:30:44;;;;;;;9.43;3.93;;;;;;;;;;4993137;28;20217;-47
2023/12/16 07:33:10;;;;;;;11.87;3.80;;;;;;;;;;4992814;28;20298;-48
2023/12/16 07:35:38;;;;;;;9.13;4.17;;;;;;;;;;4992556;28;20194;-47
2023/12/16 07:38:04;;;;;;;8.87;3.20;;;;;;;;;;4992274;28;20199;-48
2023/12/16 07:40:31;;;;;;;9.60;4.23;;;;;;;;;;4992572;28;20256;-47
2023/12/16 07:42:57;;;;;;;12.23;4.10;;;;;;;;;;4992916;28;20204;-48
2023/12/16 07:45:23;;;;;;;10.50;4.37;;;;;;;;;;4992555;28;20276;-47
2023/12/16 07:47:51;;;;;;;16.77;3.70;;;;;;;;;;4992294;28;20798;-47
2023/12/16 07:50:19;;;;;;;11.20;4.33;;;;;;;;;;4992599;28;20889;-47
2023/12/16 07:52:46;;;;;;;10.60;3.60;;;;;;;;;;4992640;28;20261;-47
2023/12/16 07:55:12;;;;;;;12.27;5.17;;;;;;;;;;4992458;28;20745;-47
2023/12/16 07:57:38;;;;;;;12.23;4.10;;;;;;;;;;4992550;28;20229;-48
2023/12/16 08:00:05;;;;;;;14.27;6.20;;;;;;;;;;4992498;28;20222;-48
2023/12/16 08:02:31;;;;;;;11.50;4.20;;;;;;;;;;4992324;28;20218;-47
2023/12/16 08:04:58;;;;;;;15.77;5.00;;;;;;;;;;4992534;28;20619;-47
2023/12/16 08:07:24;;;;;;;11.37;4.27;;;;;;;;;;4992238;28;20249;-50
2023/12/16 08:09:50;;;;;;;11.10;4.33;;;;;;;;;;4992363;28;20198;-48
2023/12/16 08:12:16;;;;;;;12.80;4.57;;;;;;;;;;4992151;28;20305;-47
2023/12/16 08:14:42;;;;;;;12.10;4.33;;;;;;;;;;4992484;28;20240;-47
2023/12/16 08:17:08;;;;;;;10.17;4.33;;;;;;;;;;4992371;28;20213;-47
2023/12/16 08:19:34;;;;;;;9.33;4.03;;;;;;;;;;4992314;28;20537;-47
2023/12/16 08:22:02;;;;;;;13.43;4.00;;;;;;;;;;4992218;28;20222;-47
2023/12/16 08:24:29;;;;;;;12.63;4.30;;;;;;;;;;4992174;28;20214;-47
2023/12/16 08:26:55;;;;;;;9.80;4.20;;;;;;;;;;4992239;28;20253;-47
2023/12/16 08:29:21;;;;;;;11.03;4.27;;;;;;;;;;4992128;28;20244;-48
2023/12/16 08:31:47;;;;;;;10.47;4.27;;;;;;;;;;4992162;28;20186;-47
2023/12/16 08:34:13;;;;;;;11.10;4.07;;;;;;;;;;4992153;28;20609;-46
2023/12/16 08:36:39;;;;;;;10.77;4.37;;;;;;;;;;4992366;28;20289;-48
2023/12/16 08:39:06;;;;;;;8.60;4.60;;;;;;;;;;4992101;28;20538;-48
2023/12/16 08:41:32;;;;;;;13.17;4.10;;;;;;;;;;4991970;28;20203;-48
2023/12/16 08:43:58;;;;;;;9.27;4.20;;;;;;;;;;4992389;28;20374;-48
2023/12/16 08:46:25;;;;;;;18.43;4.73;;;;;;;;;;4992955;28;20237;-47
2023/12/16 08:48:53;;;;;;;12.00;4.53;;;;;;;;;;4996008;28;20198;-48
2023/12/16 08:51:21;;;;;;;11.53;4.70;;;;;;;;;;4995931;28;20206;-46
2023/12/16 08:53:47;;;;;;;11.73;4.60;;;;;;;;;;4995833;28;20265;-47
2023/12/16 08:56:17;;;;;;;12.40;4.87;;;;;;;;;;4995837;28;20599;-48
2023/12/16 08:58:43;;;;;;;10.17;4.73;;;;;;;;;;4995887;28;20202;-47
2023/12/16 09:01:09;;;;;;;12.13;4.93;;;;;;;;;;4995849;28;20210;-47
2023/12/16 09:03:36;;;;;;;11.10;4.23;;;;;;;;;;4995603;28;20281;-47
2023/12/16 09:06:02;;;;;;;14.63;5.07;;;;;;;;;;4995831;28;20236;-47
2023/12/16 09:08:28;;;;;;;12.93;4.73;;;;;;;;;;4995563;28;20222;-48
2023/12/16 09:10:54;;;;;;;12.93;4.10;;;;;;;;;;4995657;28;20264;-48
2023/12/16 09:13:21;;;;;;;15.43;4.90;;;;;;;;;;4995442;28;20288;-47
2023/12/16 09:15:47;;;;;;;17.93;4.77;;;;;;;;;;4995518;28;20207;-47
2023/12/16 09:18:13;;;;;;;11.50;4.77;;;;;;;;;;4995385;28;20209;-48
2023/12/16 09:20:39;;;;;;;9.90;4.47;;;;;;;;;;4995499;28;20206;-47
2023/12/16 09:23:05;;;;;;;12.53;4.23;;;;;;;;;;4995215;28;20238;-47
2023/12/16 09:25:31;;;;;;;15.50;4.93;;;;;;;;;;4995151;28;20613;-47
2023/12/16 09:27:57;;;;;;;13.63;5.20;;;;;;;;;;4995012;28;20242;-47
2023/12/16 09:30:24;;;;;;;15.00;4.73;;;;;;;;;;4995246;28;20206;-47
2023/12/16 09:32:50;;;;;;;11.47;5.17;;;;;;;;;;4995197;28;20232;-47
2023/12/16 09:35:16;;;;;;;14.83;4.20;;;;;;;;;;4995112;28;20862;-48
2023/12/16 09:37:42;;;;;;;17.90;4.47;;;;;;;;;;4994985;28;20198;-49
2023/12/16 09:40:09;;;;;;;16.03;4.80;;;;;;;;;;4995501;28;20233;-49
2023/12/16 09:42:36;;;;;;;13.23;4.77;;;;;;;;;;4995150;28;20185;-48
2023/12/16 09:45:03;;;;;;;15.40;4.63;;;;;;;;;;4994882;28;20684;-48
2023/12/16 09:47:30;;;;;;;10.03;4.53;;;;;;;;;;4994894;28;20661;-47
2023/12/16 09:50:00;;;;;;;13.97;5.23;;;;;;;;;;4994879;28;20272;-45
2023/12/16 09:52:26;;;;;;;12.60;4.50;;;;;;;;;;4994719;28;20201;-47
2023/12/16 09:54:52;;;;;;;15.37;4.63;;;;;;;;;;4994763;28;20198;-47
2023/12/16 09:57:19;;;;;;;13.77;4.60;;;;;;;;;;4994225;28;20199;-45
2023/12/16 09:59:46;;;;;;;13.30;4.73;;;;;;;;;;4993852;28;20198;-45
2023/12/16 10:02:16;;;;;;;17.27;4.93;;;;;;;;;;4994795;28;20202;-46
2023/12/16 10:04:43;;;;;;;12.90;5.00;;;;;;;;;;4994658;28;20326;-45
2023/12/16 10:07:09;;;;;;;12.73;4.13;;;;;;;;;;4994568;28;20222;-45
2023/12/16 10:09:35;;;;;;;13.47;4.43;;;;;;;;;;4994246;28;20252;-45
2023/12/16 10:12:01;;;;;;;11.37;4.97;;;;;;;;;;4994668;28;20728;-46
2023/12/16 10:14:33;;;;;;;16.50;4.47;;;;;;;;;;4994472;28;20273;-46
2023/12/16 10:17:04;;;;;;;13.83;4.50;;;;;;;;;;4994394;28;20281;-48
2023/12/16 10:19:30;;;;;;;10.03;3.83;;;;;;;;;;4994315;28;20200;-46
2023/12/16 10:21:57;;;;;;;12.33;4.20;;;;;;;;;;4994499;28;20226;-46
2023/12/16 10:24:23;;;;;;;12.77;5.20;;;;;;;;;;4994307;28;20357;-46
2023/12/16 10:26:49;;;;;;;12.17;4.17;;;;;;;;;;4994005;28;20222;-46
2023/12/16 10:29:19;;;;;;;14.40;4.97;;;;;;;;;;4994740;28;20214;-46
2023/12/16 10:31:45;;;;;;;11.33;3.80;;;;;;;;;;4993967;28;20225;-46
2023/12/16 10:34:11;;;;;;;10.97;4.10;;;;;;;;;;4994146;28;20673;-47
2023/12/16 10:36:37;;;;;;;13.77;4.70;;;;;;;;;;4994105;28;20198;-46
2023/12/16 10:39:05;;;;;;;11.60;4.83;;;;;;;;;;4991570;28;20208;-46
2023/12/16 10:41:31;;;;;;;10.73;4.00;;;;;;;;;;4993542;28;20249;-46
2023/12/16 10:43:56;;;;;;;14.10;4.50;;;;;;;;;;4993690;28;20195;-46
2023/12/16 10:46:25;;;;;;;15.40;4.60;;;;;;;;;;4993426;28;20632;-46
2023/12/16 10:48:55;;;;;;;14.27;4.30;;;;;;;;;;4993245;28;20583;-47
2023/12/16 10:51:22;;;;;;;13.23;4.63;;;;;;;;;;4993454;28;20224;-46
2023/12/16 10:53:53;;;;;;;12.90;4.03;;;;;;;;;;4993571;28;20441;-46
2023/12/16 10:56:25;;;;;;;19.57;4.83;;;;;;;;;;4993225;28;20673;-46
2023/12/16 10:58:55;;;;;;;15.53;4.90;;;;;;;;;;4993249;28;20655;-46
2023/12/16 11:01:23;;;;;;;10.07;4.03;;;;;;;;;;4993116;28;20230;-46
2023/12/16 11:03:50;;;;;;;12.47;4.93;;;;;;;;;;4993240;28;20565;-46
2023/12/16 11:06:28;;;;;;;11.43;4.30;;;;;;;;;;4993298;28;20229;-46
2023/12/16 11:08:55;;;;;;;12.13;4.80;;;;;;;;;;4992872;28;20200;-46
2023/12/16 11:11:22;;;;;;;15.03;4.50;;;;;;;;;;4984487;28;20202;-46
2023/12/16 11:13:50;;;;;;;18.70;6.30;;;;;;;;;;4983018;28;20226;-46
2023/12/16 11:16:18;;;;;;;19.83;4.77;;;;;;;;;;4981488;28;20274;-46
2023/12/16 11:18:54;;;;;;;15.20;4.20;;;;;;;;;;4978381;28;20947;-47
2023/12/16 11:21:22;;;;;;;13.53;4.00;;;;;;;;;;4981537;28;20194;-46
2023/12/16 11:23:49;;;;;;;14.30;4.10;;;;;;;;;;4982493;28;20624;-46
2023/12/16 11:26:15;;;;;;;11.33;4.33;;;;;;;;;;4982754;28;20225;-46
2023/12/16 11:28:43;;;;;;;12.63;4.03;;;;;;;;;;4984220;28;20238;-46
2023/12/16 11:31:12;;;;;;;12.00;4.27;;;;;;;;;;4981139;28;20206;-46
2023/12/16 11:33:44;;;;;;;14.17;5.07;;;;;;;;;;4980918;28;20574;-46
2023/12/16 11:36:10;;;;;;;16.00;5.30;;;;;;;;;;4981033;28;20617;-46
2023/12/16 11:38:38;;;;;;;11.83;4.10;;;;;;;;;;4980477;28;20194;-46
2023/12/16 11:41:04;;;;;;;12.90;4.13;;;;;;;;;;4981117;28;20285;-46
2023/12/16 11:43:51;;;;;;;15.23;3.90;;;;;;;;;;4980756;28;20732;-46
2023/12/16 11:46:35;;;;;;;12.10;4.00;;;;;;;;;;4980746;28;20206;-46
2023/12/16 11:49:02;;;;;;;16.03;4.40;;;;;;;;;;4978574;28;20209;-46
2023/12/16 11:51:28;;;;;;;18.03;5.17;;;;;;;;;;4961381;28;20205;-46
2023/12/16 11:53:54;;;;;;;13.17;4.20;;;;;;;;;;4964783;28;20203;-47
2023/12/16 11:56:20;;;;;;;16.50;4.50;;;;;;;;;;4964601;28;20195;-46
2023/12/16 11:58:46;;;;;;;11.93;4.83;;;;;;;;;;4963057;28;20199;-46
2023/12/16 12:01:14;;;;;;;17.50;4.90;;;;;;;;;;4963033;28;20721;-46
2023/12/16 12:03:40;;;;;;;11.93;4.63;;;;;;;;;;4963085;28;20689;-46
2023/12/16 12:06:06;;;;;;;17.87;5.27;;;;;;;;;;4962915;28;20198;-47
2023/12/16 12:08:33;;;;;;;14.27;4.17;;;;;;;;;;4962840;28;20293;-46
2023/12/16 12:10:59;;;;;;;13.33;4.80;;;;;;;;;;4961314;28;20227;-46
2023/12/16 12:13:25;;;;;;;13.03;4.07;;;;;;;;;;4961150;28;20242;-46
2023/12/16 12:15:51;;;;;;;17.40;4.23;;;;;;;;;;4963020;28;20261;-46
2023/12/16 12:18:18;;;;;;;14.40;5.57;;;;;;;;;;4961083;28;20203;-46
2023/12/16 12:20:44;;;;;;;16.97;5.20;;;;;;;;;;4970686;28;20306;-46
2023/12/16 12:23:12;;;;;;;11.50;4.73;;;;;;;;;;4972869;28;20241;-46
2023/12/16 12:25:38;;;;;;;15.03;5.53;;;;;;;;;;4972682;28;20282;-47
2023/12/16 12:28:08;;;;;;;12.70;4.10;;;;;;;;;;4972574;28;20680;-46
2023/12/16 12:30:34;;;;;;;14.47;5.20;;;;;;;;;;4962618;28;20206;-46
2023/12/16 12:33:00;;;;;;;14.60;4.90;;;;;;;;;;4972653;28;20205;-46
2023/12/16 12:35:28;;;;;;;13.83;4.77;;;;;;;;;;4972529;28;20220;-45
2023/12/16 12:37:54;;;;;;;12.63;4.57;;;;;;;;;;4972480;28;20198;-46
2023/12/16 12:40:20;;;;;;;15.27;4.67;;;;;;;;;;4972426;28;20206;-46
2023/12/16 12:42:48;;;;;;;14.43;4.93;;;;;;;;;;4972584;28;20202;-46
2023/12/16 12:45:24;;;;;;;13.10;4.07;;;;;;;;;;4972889;28;20195;-44
2023/12/16 12:47:50;;;;;;;14.20;4.17;;;;;;;;;;4972543;28;20234;-45
2023/12/16 12:50:20;;;;;;;14.57;4.67;;;;;;;;;;4972203;28;20206;-45
2023/12/16 12:52:47;;;;;;;13.50;4.23;;;;;;;;;;4972482;28;20237;-45
2023/12/16 12:55:13;;;;;;;10.87;3.87;;;;;;;;;;4967093;28;20207;-46
2023/12/16 12:57:39;;;;;;;15.53;4.67;;;;;;;;;;4972594;28;20199;-46
2023/12/16 13:00:07;;;;;;;16.47;4.40;;;;;;;;;;4972633;28;20250;-45
2023/12/16 13:02:33;;;;;;;10.60;4.60;;;;;;;;;;4972496;28;20392;-46
2023/12/16 13:04:59;;;;;;;13.47;4.43;;;;;;;;;;4972459;28;20314;-46
2023/12/16 13:07:25;;;;;;;10.93;5.43;;;;;;;;;;4972462;28;20318;-46
2023/12/16 13:09:52;;;;;;;13.27;4.17;;;;;;;;;;4972429;28;20294;-46
2023/12/16 13:12:18;;;;;;;11.03;4.77;;;;;;;;;;4972389;28;20230;-46
2023/12/16 13:14:44;;;;;;;13.23;4.40;;;;;;;;;;4972511;28;20195;-46
2023/12/16 13:17:11;;;;;;;16.47;5.27;;;;;;;;;;4972592;28;20194;-45
2023/12/16 13:19:37;;;;;;;18.23;5.17;;;;;;;;;;4972511;28;20294;-46
2023/12/16 13:22:03;;;;;;;17.53;7.30;;;;;;;;;;4972589;28;20214;-46
2023/12/16 13:24:30;;;;;;;17.70;5.40;;;;;;;;;;4972502;28;20273;-47
2023/12/16 13:26:58;;;;;;;13.20;5.53;;;;;;;;;;4972548;28;20229;-47
2023/12/16 13:29:24;;;;;;;16.50;5.13;;;;;;;;;;4972568;28;20209;-46
2023/12/16 13:31:50;;;;;;;15.23;4.60;;;;;;;;;;4972386;28;20645;-46
2023/12/16 13:34:16;;;;;;;9.77;4.47;;;;;;;;;;4975948;28;20199;-47
2023/12/16 13:36:42;;;;;;;11.83;4.80;;;;;;;;;;4975775;28;20199;-47
2023/12/16 13:39:08;;;;;;;13.83;4.67;;;;;;;;;;4975526;28;20203;-47
2023/12/16 13:41:34;;;;;;;15.70;4.93;;;;;;;;;;4975497;28;20207;-47
2023/12/16 13:44:02;;;;;;;14.13;5.10;;;;;;;;;;4975518;28;20261;-47
2023/12/16 13:46:28;;;;;;;16.47;5.27;;;;;;;;;;4975477;28;20218;-47
2023/12/16 13:48:54;;;;;;;13.83;4.43;;;;;;;;;;4975187;28;20233;-47
2023/12/16 13:51:20;;;;;;;11.77;4.10;;;;;;;;;;4975202;28;20231;-47
2023/12/16 13:53:46;;;;;;;10.40;4.10;;;;;;;;;;4975200;28;20194;-46
2023/12/16 13:56:12;;;;;;;10.47;4.27;;;;;;;;;;4975456;28;20206;-47
2023/12/16 13:58:38;;;;;;;13.97;4.67;;;;;;;;;;4975307;28;20214;-47
2023/12/16 14:01:06;;;;;;;17.27;5.63;;;;;;;;;;4975350;28;20198;-47
2023/12/16 14:03:32;;;;;;;15.23;5.10;;;;;;;;;;4975289;28;20226;-47
2023/12/16 14:05:58;;;;;;;12.17;5.47;;;;;;;;;;4975635;28;20233;-46
2023/12/16 14:08:24;;;;;;;13.30;5.70;;;;;;;;;;4975231;28;20234;-47
2023/12/16 14:10:50;;;;;;;12.43;5.43;;;;;;;;;;4975323;28;20209;-47
2023/12/16 14:13:16;;;;;;;11.33;5.20;;;;;;;;;;4975177;28;20202;-47
2023/12/16 14:15:42;;;;;;;9.63;5.50;;;;;;;;;;4975465;28;20214;-47
2023/12/16 14:18:10;;;;;;;14.57;6.50;;;;;;;;;;4975295;28;20571;-47
2023/12/16 14:20:36;;;;;;;17.97;7.10;;;;;;;;;;4975000;28;20673;-47
2023/12/16 14:23:02;;;;;;;8.83;5.37;;;;;;;;;;4974860;28;20705;-47
2023/12/16 14:25:28;;;;;;;12.03;6.87;;;;;;;;;;4974906;28;20293;-47
2023/12/16 14:27:54;;;;;;;12.47;6.87;;;;;;;;;;4974755;28;20239;-46
2023/12/16 14:30:20;;;;;;;16.10;8.70;;;;;;;;;;4974649;28;20233;-46